sensor_id;sensor_type;location;lat;lon;timestamp;temperature;humidity
14397;DHT22;50653;47.810;13.022;2023-02-04T00:01:55;5.70;99.90
14397;DHT22;50653;47.810;13.022;2023-02-04T00:04:21;5.60;99.90
14397;DHT22;50653;47.810;13.022;2023-02-04T00:06:46;5.60;99.90
14397;DHT22;50653;47.810;13.022;2023-02-04T00:09:12;5.60;99.90
14397;DHT22;50653;47.810;13.022;2023-02-04T00:11:38;5.50;99.90
14397;DHT22;50653;47.810;13.022;2023-02-04T00:14:04;5.50;99.90
14397;DHT22;50653;47.810;13.022;2023-02-04T00:16:30;5.50;99.90
14397;DHT22;50653;47.810;13.022;2023-02-04T00:18:56;5.50;99.90
14397;DHT22;50653;47.810;13.022;2023-02-04T00:21:21;5.50;99.90
14397;DHT22;50653;47.810;13.022;2023-02-04T00:23:47;5.40;99.90
14397;DHT22;50653;47.810;13.022;2023-02-04T00:26:15;5.30;99.90
14397;DHT22;50653;47.810;13.022;2023-02-04T00:28:41;5.30;99.90
14397;DHT22;50653;47.810;13.022;2023-02-04T00:31:07;5.30;99.90
14397;DHT22;50653;47.810;13.022;2023-02-04T00:33:32;5.20;99.90
14397;DHT22;50653;47.810;13.022;2023-02-04T00:35:58;5.20;99.90
14397;DHT22;50653;47.810;13.022;2023-02-04T00:38:24;5.10;99.90
14397;DHT22;50653;47.810;13.022;2023-02-04T00:40:49;5.10;99.90
14397;DHT22;50653;47.810;13.022;2023-02-04T00:43:17;5.00;99.90
14397;DHT22;50653;47.810;13.022;2023-02-04T00:45:43;5.00;99.90
14397;DHT22;50653;47.810;13.022;2023-02-04T00:48:09;5.00;99.90
14397;DHT22;50653;47.810;13.022;2023-02-04T00:50:35;5.00;99.90
14397;DHT22;50653;47.810;13.022;2023-02-04T00:53:05;5.00;99.90
14397;DHT22;50653;47.810;13.022;2023-02-04T00:55:30;5.10;99.90
14397;DHT22;50653;47.810;13.022;2023-02-04T00:57:57;5.20;99.90
14397;DHT22;50653;47.810;13.022;2023-02-04T01:00:23;5.20;99.90
14397;DHT22;50653;47.810;13.022;2023-02-04T01:02:48;5.10;99.90
14397;DHT22;50653;47.810;13.022;2023-02-04T01:05:14;5.20;99.90
14397;DHT22;50653;47.810;13.022;2023-02-04T01:07:40;5.20;99.90
14397;DHT22;50653;47.810;13.022;2023-02-04T01:10:06;5.10;99.90
14397;DHT22;50653;47.810;13.022;2023-02-04T01:12:34;5.20;99.90
14397;DHT22;50653;47.810;13.022;2023-02-04T01:14:59;5.10;99.90
14397;DHT22;50653;47.810;13.022;2023-02-04T01:17:25;5.10;99.90
14397;DHT22;50653;47.810;13.022;2023-02-04T01:19:52;5.00;99.90
14397;DHT22;50653;47.810;13.022;2023-02-04T01:22:19;5.10;99.90
14397;DHT22;50653;47.810;13.022;2023-02-04T01:24:45;5.00;99.90
14397;DHT22;50653;47.810;13.022;2023-02-04T01:27:30;5.00;99.90
14397;DHT22;50653;47.810;13.022;2023-02-04T01:29:55;5.00;99.90
14397;DHT22;50653;47.810;13.022;2023-02-04T01:32:21;5.10;99.90
14397;DHT22;50653;47.810;13.022;2023-02-04T01:34:47;5.10;99.90
14397;DHT22;50653;47.810;13.022;2023-02-04T01:37:12;5.10;99.90
14397;DHT22;50653;47.810;13.022;2023-02-04T01:39:40;5.10;99.90
14397;DHT22;50653;47.810;13.022;2023-02-04T01:42:06;5.00;99.90
14397;DHT22;50653;47.810;13.022;2023-02-04T01:44:32;5.10;99.90
14397;DHT22;50653;47.810;13.022;2023-02-04T01:46:58;5.00;99.90
14397;DHT22;50653;47.810;13.022;2023-02-04T01:49:24;5.00;99.90
14397;DHT22;50653;47.810;13.022;2023-02-04T01:51:50;5.00;99.90
14397;DHT22;50653;47.810;13.022;2023-02-04T01:54:16;5.00;99.90
14397;DHT22;50653;47.810;13.022;2023-02-04T01:56:45;5.10;99.90
14397;DHT22;50653;47.810;13.022;2023-02-04T01:59:15;5.10;99.90
14397;DHT22;50653;47.810;13.022;2023-02-04T02:01:42;5.10;99.90
14397;DHT22;50653;47.810;13.022;2023-02-04T02:04:13;5.00;99.90
14397;DHT22;50653;47.810;13.022;2023-02-04T02:06:44;5.10;99.90
14397;DHT22;50653;47.810;13.022;2023-02-04T02:09:11;5.10;99.90
14397;DHT22;50653;47.810;13.022;2023-02-04T02:11:37;5.20;99.90
14397;DHT22;50653;47.810;13.022;2023-02-04T02:14:04;5.10;99.90
14397;DHT22;50653;47.810;13.022;2023-02-04T02:16:30;5.20;99.90
14397;DHT22;50653;47.810;13.022;2023-02-04T02:18:55;5.10;99.90
14397;DHT22;50653;47.810;13.022;2023-02-04T02:21:39;5.20;99.90
14397;DHT22;50653;47.810;13.022;2023-02-04T02:24:28;5.10;99.90
14397;DHT22;50653;47.810;13.022;2023-02-04T02:26:56;5.20;99.90
14397;DHT22;50653;47.810;13.022;2023-02-04T02:29:23;5.20;99.90
14397;DHT22;50653;47.810;13.022;2023-02-04T02:31:50;5.20;99.90
14397;DHT22;50653;47.810;13.022;2023-02-04T02:34:16;5.20;99.90
14397;DHT22;50653;47.810;13.022;2023-02-04T02:36:42;5.20;99.90
14397;DHT22;50653;47.810;13.022;2023-02-04T02:39:08;5.20;99.90
14397;DHT22;50653;47.810;13.022;2023-02-04T02:41:36;5.20;99.90
14397;DHT22;50653;47.810;13.022;2023-02-04T02:44:02;5.10;99.90
14397;DHT22;50653;47.810;13.022;2023-02-04T02:46:29;5.10;99.90
14397;DHT22;50653;47.810;13.022;2023-02-04T02:48:55;5.00;99.90
14397;DHT22;50653;47.810;13.022;2023-02-04T02:51:20;5.10;99.90
14397;DHT22;50653;47.810;13.022;2023-02-04T02:53:47;4.90;99.90
14397;DHT22;50653;47.810;13.022;2023-02-04T02:56:13;4.90;99.90
14397;DHT22;50653;47.810;13.022;2023-02-04T02:58:39;5.00;99.90
14397;DHT22;50653;47.810;13.022;2023-02-04T03:01:07;5.00;99.90
14397;DHT22;50653;47.810;13.022;2023-02-04T03:03:42;5.00;99.90
14397;DHT22;50653;47.810;13.022;2023-02-04T03:06:15;5.00;99.90
14397;DHT22;50653;47.810;13.022;2023-02-04T03:08:42;4.90;99.90
14397;DHT22;50653;47.810;13.022;2023-02-04T03:11:08;4.90;99.90
14397;DHT22;50653;47.810;13.022;2023-02-04T03:13:35;4.90;99.90
14397;DHT22;50653;47.810;13.022;2023-02-04T03:16:02;5.00;99.90
14397;DHT22;50653;47.810;13.022;2023-02-04T03:18:29;5.00;99.90
14397;DHT22;50653;47.810;13.022;2023-02-04T03:20:56;4.90;99.90
14397;DHT22;50653;47.810;13.022;2023-02-04T03:23:23;4.90;99.90
14397;DHT22;50653;47.810;13.022;2023-02-04T03:25:49;4.90;99.90
14397;DHT22;50653;47.810;13.022;2023-02-04T03:28:16;4.90;99.90
14397;DHT22;50653;47.810;13.022;2023-02-04T03:30:42;4.90;99.90
14397;DHT22;50653;47.810;13.022;2023-02-04T03:33:08;5.00;99.90
14397;DHT22;50653;47.810;13.022;2023-02-04T03:35:33;5.10;99.90
14397;DHT22;50653;47.810;13.022;2023-02-04T03:37:59;5.00;99.90
14397;DHT22;50653;47.810;13.022;2023-02-04T03:40:25;5.10;99.90
14397;DHT22;50653;47.810;13.022;2023-02-04T03:42:51;5.00;99.90
14397;DHT22;50653;47.810;13.022;2023-02-04T03:45:16;5.00;99.90
14397;DHT22;50653;47.810;13.022;2023-02-04T03:47:42;5.00;99.90
14397;DHT22;50653;47.810;13.022;2023-02-04T03:50:08;5.00;99.90
14397;DHT22;50653;47.810;13.022;2023-02-04T03:52:36;5.10;99.90
14397;DHT22;50653;47.810;13.022;2023-02-04T03:55:02;5.10;99.90
14397;DHT22;50653;47.810;13.022;2023-02-04T03:57:28;5.10;99.90
14397;DHT22;50653;47.810;13.022;2023-02-04T03:59:53;5.20;99.90
14397;DHT22;50653;47.810;13.022;2023-02-04T04:02:19;5.20;99.90
14397;DHT22;50653;47.810;13.022;2023-02-04T04:04:45;5.20;99.90
14397;DHT22;50653;47.810;13.022;2023-02-04T04:07:10;5.20;99.90
14397;DHT22;50653;47.810;13.022;2023-02-04T04:09:36;5.10;99.90
14397;DHT22;50653;47.810;13.022;2023-02-04T04:12:01;5.20;99.90
14397;DHT22;50653;47.810;13.022;2023-02-04T04:14:28;5.20;99.90
14397;DHT22;50653;47.810;13.022;2023-02-04T04:16:54;5.20;99.90
14397;DHT22;50653;47.810;13.022;2023-02-04T04:19:20;5.20;99.90
14397;DHT22;50653;47.810;13.022;2023-02-04T04:21:45;5.20;99.90
14397;DHT22;50653;47.810;13.022;2023-02-04T04:24:11;5.20;99.90
14397;DHT22;50653;47.810;13.022;2023-02-04T04:26:36;5.20;99.90
14397;DHT22;50653;47.810;13.022;2023-02-04T04:29:02;5.30;99.90
14397;DHT22;50653;47.810;13.022;2023-02-04T04:31:28;5.30;99.90
14397;DHT22;50653;47.810;13.022;2023-02-04T04:33:53;5.30;99.90
14397;DHT22;50653;47.810;13.022;2023-02-04T04:36:19;5.30;99.90
14397;DHT22;50653;47.810;13.022;2023-02-04T04:38:45;5.30;99.90
14397;DHT22;50653;47.810;13.022;2023-02-04T04:41:10;5.30;99.90
14397;DHT22;50653;47.810;13.022;2023-02-04T04:43:36;5.30;99.90
14397;DHT22;50653;47.810;13.022;2023-02-04T04:46:02;5.30;99.90
14397;DHT22;50653;47.810;13.022;2023-02-04T04:48:27;5.30;99.90
14397;DHT22;50653;47.810;13.022;2023-02-04T04:50:53;5.40;99.90
14397;DHT22;50653;47.810;13.022;2023-02-04T04:53:18;5.30;99.90
14397;DHT22;50653;47.810;13.022;2023-02-04T04:55:44;5.30;99.90
14397;DHT22;50653;47.810;13.022;2023-02-04T04:58:10;5.30;99.90
14397;DHT22;50653;47.810;13.022;2023-02-04T05:00:35;5.30;99.90
14397;DHT22;50653;47.810;13.022;2023-02-04T05:03:01;5.30;99.90
14397;DHT22;50653;47.810;13.022;2023-02-04T05:05:27;5.30;99.90
14397;DHT22;50653;47.810;13.022;2023-02-04T05:07:52;5.30;99.90
14397;DHT22;50653;47.810;13.022;2023-02-04T05:10:19;5.40;99.90
14397;DHT22;50653;47.810;13.022;2023-02-04T05:12:44;5.30;99.90
14397;DHT22;50653;47.810;13.022;2023-02-04T05:15:10;5.30;99.90
14397;DHT22;50653;47.810;13.022;2023-02-04T05:17:36;5.30;99.90
14397;DHT22;50653;47.810;13.022;2023-02-04T05:20:02;5.30;99.90
14397;DHT22;50653;47.810;13.022;2023-02-04T05:22:28;5.40;99.90
14397;DHT22;50653;47.810;13.022;2023-02-04T05:24:54;5.40;99.90
14397;DHT22;50653;47.810;13.022;2023-02-04T05:27:19;5.30;99.90
14397;DHT22;50653;47.810;13.022;2023-02-04T05:29:45;5.30;99.90
14397;DHT22;50653;47.810;13.022;2023-02-04T05:32:10;5.30;99.90
14397;DHT22;50653;47.810;13.022;2023-02-04T05:34:36;5.30;99.90
14397;DHT22;50653;47.810;13.022;2023-02-04T05:37:02;5.30;99.90
14397;DHT22;50653;47.810;13.022;2023-02-04T05:39:28;5.20;99.90
14397;DHT22;50653;47.810;13.022;2023-02-04T05:41:53;5.30;99.90
14397;DHT22;50653;47.810;13.022;2023-02-04T05:44:19;5.20;99.90
14397;DHT22;50653;47.810;13.022;2023-02-04T05:46:45;5.30;99.90
14397;DHT22;50653;47.810;13.022;2023-02-04T05:49:10;5.30;99.90
14397;DHT22;50653;47.810;13.022;2023-02-04T05:51:36;5.30;99.90
14397;DHT22;50653;47.810;13.022;2023-02-04T05:54:02;5.30;99.90
14397;DHT22;50653;47.810;13.022;2023-02-04T05:56:28;5.20;99.90
14397;DHT22;50653;47.810;13.022;2023-02-04T05:58:54;5.20;99.90
14397;DHT22;50653;47.810;13.022;2023-02-04T06:01:20;5.20;99.90
14397;DHT22;50653;47.810;13.022;2023-02-04T06:03:46;5.20;99.90
14397;DHT22;50653;47.810;13.022;2023-02-04T06:06:11;5.10;99.90
14397;DHT22;50653;47.810;13.022;2023-02-04T06:08:37;5.10;99.90
14397;DHT22;50653;47.810;13.022;2023-02-04T06:11:03;5.10;99.90
14397;DHT22;50653;47.810;13.022;2023-02-04T06:13:28;5.10;99.90
14397;DHT22;50653;47.810;13.022;2023-02-04T06:15:54;5.10;99.90
14397;DHT22;50653;47.810;13.022;2023-02-04T06:18:19;5.20;99.90
14397;DHT22;50653;47.810;13.022;2023-02-04T06:20:45;5.10;99.90
14397;DHT22;50653;47.810;13.022;2023-02-04T06:23:11;5.20;99.90
14397;DHT22;50653;47.810;13.022;2023-02-04T06:25:37;5.20;99.90
14397;DHT22;50653;47.810;13.022;2023-02-04T06:28:02;5.10;99.90
14397;DHT22;50653;47.810;13.022;2023-02-04T06:30:28;5.20;99.90
14397;DHT22;50653;47.810;13.022;2023-02-04T06:32:54;5.20;99.90
14397;DHT22;50653;47.810;13.022;2023-02-04T06:35:19;5.10;99.90
14397;DHT22;50653;47.810;13.022;2023-02-04T06:37:45;5.20;99.90
14397;DHT22;50653;47.810;13.022;2023-02-04T06:40:11;5.10;99.90
14397;DHT22;50653;47.810;13.022;2023-02-04T06:42:37;5.30;99.90
14397;DHT22;50653;47.810;13.022;2023-02-04T06:45:03;5.20;99.90
14397;DHT22;50653;47.810;13.022;2023-02-04T06:47:29;5.20;99.90
14397;DHT22;50653;47.810;13.022;2023-02-04T06:49:55;5.20;99.90
14397;DHT22;50653;47.810;13.022;2023-02-04T06:52:20;5.20;99.90
14397;DHT22;50653;47.810;13.022;2023-02-04T06:54:46;5.20;99.90
14397;DHT22;50653;47.810;13.022;2023-02-04T06:57:12;5.10;99.90
14397;DHT22;50653;47.810;13.022;2023-02-04T06:59:38;5.20;99.90
14397;DHT22;50653;47.810;13.022;2023-02-04T07:02:06;5.10;99.90
14397;DHT22;50653;47.810;13.022;2023-02-04T07:04:33;5.10;99.90
14397;DHT22;50653;47.810;13.022;2023-02-04T07:06:58;5.10;99.90
14397;DHT22;50653;47.810;13.022;2023-02-04T07:09:24;5.10;99.90
14397;DHT22;50653;47.810;13.022;2023-02-04T07:11:50;5.20;99.90
14397;DHT22;50653;47.810;13.022;2023-02-04T07:14:16;5.10;99.90
14397;DHT22;50653;47.810;13.022;2023-02-04T07:16:43;5.20;99.90
14397;DHT22;50653;47.810;13.022;2023-02-04T07:19:08;5.10;99.90
14397;DHT22;50653;47.810;13.022;2023-02-04T07:21:34;5.20;99.90
14397;DHT22;50653;47.810;13.022;2023-02-04T07:24:00;5.20;99.90
14397;DHT22;50653;47.810;13.022;2023-02-04T07:26:26;5.20;99.90
14397;DHT22;50653;47.810;13.022;2023-02-04T07:28:52;5.20;99.90
14397;DHT22;50653;47.810;13.022;2023-02-04T07:31:17;5.20;99.90
14397;DHT22;50653;47.810;13.022;2023-02-04T07:33:43;5.10;99.90
14397;DHT22;50653;47.810;13.022;2023-02-04T07:36:09;5.20;99.90
14397;DHT22;50653;47.810;13.022;2023-02-04T07:38:34;5.20;99.90
14397;DHT22;50653;47.810;13.022;2023-02-04T07:41:00;5.20;99.90
14397;DHT22;50653;47.810;13.022;2023-02-04T07:43:26;5.20;99.90
14397;DHT22;50653;47.810;13.022;2023-02-04T07:45:52;5.20;99.90
14397;DHT22;50653;47.810;13.022;2023-02-04T07:48:18;5.30;99.90
14397;DHT22;50653;47.810;13.022;2023-02-04T07:50:43;5.30;99.90
14397;DHT22;50653;47.810;13.022;2023-02-04T07:53:09;5.30;99.90
14397;DHT22;50653;47.810;13.022;2023-02-04T07:55:35;5.30;99.90
14397;DHT22;50653;47.810;13.022;2023-02-04T07:58:00;5.20;99.90
14397;DHT22;50653;47.810;13.022;2023-02-04T08:00:26;5.30;99.90
14397;DHT22;50653;47.810;13.022;2023-02-04T08:02:52;5.30;99.90
14397;DHT22;50653;47.810;13.022;2023-02-04T08:05:17;5.30;99.90
14397;DHT22;50653;47.810;13.022;2023-02-04T08:07:43;5.30;99.90
14397;DHT22;50653;47.810;13.022;2023-02-04T08:10:10;5.30;99.90
14397;DHT22;50653;47.810;13.022;2023-02-04T08:12:36;5.30;99.90
14397;DHT22;50653;47.810;13.022;2023-02-04T08:15:02;5.30;99.90
14397;DHT22;50653;47.810;13.022;2023-02-04T08:17:27;5.30;99.90
14397;DHT22;50653;47.810;13.022;2023-02-04T08:19:53;5.30;99.90
14397;DHT22;50653;47.810;13.022;2023-02-04T08:22:19;5.30;99.90
14397;DHT22;50653;47.810;13.022;2023-02-04T08:24:45;5.30;99.90
14397;DHT22;50653;47.810;13.022;2023-02-04T08:27:10;5.30;99.90
14397;DHT22;50653;47.810;13.022;2023-02-04T08:29:36;5.30;99.90
14397;DHT22;50653;47.810;13.022;2023-02-04T08:32:02;5.30;99.90
14397;DHT22;50653;47.810;13.022;2023-02-04T08:34:29;5.20;99.90
14397;DHT22;50653;47.810;13.022;2023-02-04T08:36:54;5.10;99.90
14397;DHT22;50653;47.810;13.022;2023-02-04T08:39:20;4.70;99.90
14397;DHT22;50653;47.810;13.022;2023-02-04T08:41:46;4.50;99.90
14397;DHT22;50653;47.810;13.022;2023-02-04T08:44:14;4.40;99.90
14397;DHT22;50653;47.810;13.022;2023-02-04T08:46:40;4.10;99.90
14397;DHT22;50653;47.810;13.022;2023-02-04T08:49:05;3.80;99.90
14397;DHT22;50653;47.810;13.022;2023-02-04T08:51:31;3.60;99.90
14397;DHT22;50653;47.810;13.022;2023-02-04T08:53:57;3.60;99.90
14397;DHT22;50653;47.810;13.022;2023-02-04T08:56:22;3.40;99.90
14397;DHT22;50653;47.810;13.022;2023-02-04T08:58:48;3.30;99.90
14397;DHT22;50653;47.810;13.022;2023-02-04T09:01:14;3.30;99.90
14397;DHT22;50653;47.810;13.022;2023-02-04T09:03:40;3.20;99.90
14397;DHT22;50653;47.810;13.022;2023-02-04T09:06:06;2.70;99.90
14397;DHT22;50653;47.810;13.022;2023-02-04T09:08:32;2.60;99.90
14397;DHT22;50653;47.810;13.022;2023-02-04T09:10:58;2.70;99.90
14397;DHT22;50653;47.810;13.022;2023-02-04T09:13:23;2.40;99.90
14397;DHT22;50653;47.810;13.022;2023-02-04T09:15:49;2.40;99.90
14397;DHT22;50653;47.810;13.022;2023-02-04T09:18:17;2.40;99.90
14397;DHT22;50653;47.810;13.022;2023-02-04T09:20:47;2.30;99.90
14397;DHT22;50653;47.810;13.022;2023-02-04T09:23:13;2.20;99.90
14397;DHT22;50653;47.810;13.022;2023-02-04T09:25:40;2.20;99.90
14397;DHT22;50653;47.810;13.022;2023-02-04T09:28:07;2.10;99.90
14397;DHT22;50653;47.810;13.022;2023-02-04T09:30:37;2.30;99.90
14397;DHT22;50653;47.810;13.022;2023-02-04T09:33:03;2.40;99.90
14397;DHT22;50653;47.810;13.022;2023-02-04T09:35:29;2.50;99.90
14397;DHT22;50653;47.810;13.022;2023-02-04T09:37:55;2.60;99.90
14397;DHT22;50653;47.810;13.022;2023-02-04T09:40:20;2.80;99.90
14397;DHT22;50653;47.810;13.022;2023-02-04T09:42:50;2.80;99.90
14397;DHT22;50653;47.810;13.022;2023-02-04T09:45:18;2.80;99.90
14397;DHT22;50653;47.810;13.022;2023-02-04T09:47:45;2.90;99.90
14397;DHT22;50653;47.810;13.022;2023-02-04T09:50:19;2.80;99.90
14397;DHT22;50653;47.810;13.022;2023-02-04T09:52:48;2.80;99.90
14397;DHT22;50653;47.810;13.022;2023-02-04T09:55:16;2.90;99.90
14397;DHT22;50653;47.810;13.022;2023-02-04T09:57:42;2.90;99.90
14397;DHT22;50653;47.810;13.022;2023-02-04T10:00:17;2.80;99.90
14397;DHT22;50653;47.810;13.022;2023-02-04T10:02:43;2.90;99.90
14397;DHT22;50653;47.810;13.022;2023-02-04T10:05:17;2.90;99.90
14397;DHT22;50653;47.810;13.022;2023-02-04T10:07:44;3.00;99.90
14397;DHT22;50653;47.810;13.022;2023-02-04T10:10:19;3.10;99.90
14397;DHT22;50653;47.810;13.022;2023-02-04T10:12:46;3.00;99.90
14397;DHT22;50653;47.810;13.022;2023-02-04T10:15:14;2.70;99.90
14397;DHT22;50653;47.810;13.022;2023-02-04T10:17:40;2.60;99.90
14397;DHT22;50653;47.810;13.022;2023-02-04T10:20:18;2.60;99.90
14397;DHT22;50653;47.810;13.022;2023-02-04T10:22:45;2.60;99.90
14397;DHT22;50653;47.810;13.022;2023-02-04T10:25:16;2.70;99.90
14397;DHT22;50653;47.810;13.022;2023-02-04T10:27:49;2.80;99.90
14397;DHT22;50653;47.810;13.022;2023-02-04T10:33:19;3.00;99.90
14397;DHT22;50653;47.810;13.022;2023-02-04T10:35:48;3.10;99.90
14397;DHT22;50653;47.810;13.022;2023-02-04T10:38:14;3.10;99.90
14397;DHT22;50653;47.810;13.022;2023-02-04T10:40:40;3.20;99.90
14397;DHT22;50653;47.810;13.022;2023-02-04T10:43:15;3.20;99.90
14397;DHT22;50653;47.810;13.022;2023-02-04T10:45:46;3.20;99.90
14397;DHT22;50653;47.810;13.022;2023-02-04T10:48:18;3.20;99.90
14397;DHT22;50653;47.810;13.022;2023-02-04T10:50:45;3.30;99.90
14397;DHT22;50653;47.810;13.022;2023-02-04T10:53:20;3.20;99.90
14397;DHT22;50653;47.810;13.022;2023-02-04T10:56:19;3.20;99.90
14397;DHT22;50653;47.810;13.022;2023-02-04T10:58:46;3.30;99.90
14397;DHT22;50653;47.810;13.022;2023-02-04T11:01:13;3.40;99.90
14397;DHT22;50653;47.810;13.022;2023-02-04T11:03:41;3.60;99.90
14397;DHT22;50653;47.810;13.022;2023-02-04T11:06:18;3.50;99.90
14397;DHT22;50653;47.810;13.022;2023-02-04T11:08:44;3.50;99.90
14397;DHT22;50653;47.810;13.022;2023-02-04T11:11:19;3.60;99.90
14397;DHT22;50653;47.810;13.022;2023-02-04T11:18:50;3.70;99.90
14397;DHT22;50653;47.810;13.022;2023-02-04T11:39:39;3.70;99.90
14397;DHT22;50653;47.810;13.022;2023-02-04T11:42:21;3.60;99.90
14397;DHT22;50653;47.810;13.022;2023-02-04T11:44:55;3.70;99.90
14397;DHT22;50653;47.810;13.022;2023-02-04T11:47:23;3.80;99.90
14397;DHT22;50653;47.810;13.022;2023-02-04T11:49:58;3.70;99.90
14397;DHT22;50653;47.810;13.022;2023-02-04T11:52:26;3.70;99.90
14397;DHT22;50653;47.810;13.022;2023-02-04T11:54:53;3.60;99.90
14397;DHT22;50653;47.810;13.022;2023-02-04T11:57:19;3.60;99.90
14397;DHT22;50653;47.810;13.022;2023-02-04T11:59:45;3.60;99.90
14397;DHT22;50653;47.810;13.022;2023-02-04T12:02:19;3.70;99.90
14397;DHT22;50653;47.810;13.022;2023-02-04T12:04:56;3.80;99.90
14397;DHT22;50653;47.810;13.022;2023-02-04T12:07:25;3.80;99.90
14397;DHT22;50653;47.810;13.022;2023-02-04T12:09:51;3.70;99.90
14397;DHT22;50653;47.810;13.022;2023-02-04T12:12:28;3.70;99.90
14397;DHT22;50653;47.810;13.022;2023-02-04T12:15:07;3.80;99.90
14397;DHT22;50653;47.810;13.022;2023-02-04T12:17:33;3.80;99.90
14397;DHT22;50653;47.810;13.022;2023-02-04T12:19:59;3.90;99.90
14397;DHT22;50653;47.810;13.022;2023-02-04T12:22:25;3.90;99.90
14397;DHT22;50653;47.810;13.022;2023-02-04T12:24:50;3.90;99.90
14397;DHT22;50653;47.810;13.022;2023-02-04T12:27:19;3.90;99.90
14397;DHT22;50653;47.810;13.022;2023-02-04T12:29:45;3.90;99.90
14397;DHT22;50653;47.810;13.022;2023-02-04T12:32:11;4.00;99.90
14397;DHT22;50653;47.810;13.022;2023-02-04T12:34:37;4.00;99.90
14397;DHT22;50653;47.810;13.022;2023-02-04T12:37:02;4.00;99.90
14397;DHT22;50653;47.810;13.022;2023-02-04T12:39:28;4.10;99.90
14397;DHT22;50653;47.810;13.022;2023-02-04T12:41:54;4.00;99.90
14397;DHT22;50653;47.810;13.022;2023-02-04T12:44:19;4.10;99.90
14397;DHT22;50653;47.810;13.022;2023-02-04T12:46:45;4.00;99.90
14397;DHT22;50653;47.810;13.022;2023-02-04T12:49:14;3.90;99.90
14397;DHT22;50653;47.810;13.022;2023-02-04T12:51:50;3.80;99.90
14397;DHT22;50653;47.810;13.022;2023-02-04T12:54:16;3.90;99.90
14397;DHT22;50653;47.810;13.022;2023-02-04T12:56:42;3.90;99.90
14397;DHT22;50653;47.810;13.022;2023-02-04T12:59:08;4.00;99.90
14397;DHT22;50653;47.810;13.022;2023-02-04T13:01:33;4.00;99.90
14397;DHT22;50653;47.810;13.022;2023-02-04T13:04:01;4.20;99.90
14397;DHT22;50653;47.810;13.022;2023-02-04T13:06:27;4.10;99.90
14397;DHT22;50653;47.810;13.022;2023-02-04T13:08:53;4.10;99.90
14397;DHT22;50653;47.810;13.022;2023-02-04T13:11:18;4.10;99.90
14397;DHT22;50653;47.810;13.022;2023-02-04T13:13:44;4.00;99.90
14397;DHT22;50653;47.810;13.022;2023-02-04T13:19:43;4.10;99.90
14397;DHT22;50653;47.810;13.022;2023-02-04T13:22:09;4.00;99.90
14397;DHT22;50653;47.810;13.022;2023-02-04T13:24:34;4.00;99.90
14397;DHT22;50653;47.810;13.022;2023-02-04T13:27:00;4.00;99.90
14397;DHT22;50653;47.810;13.022;2023-02-04T13:29:26;4.10;99.90
14397;DHT22;50653;47.810;13.022;2023-02-04T13:31:52;4.10;99.90
14397;DHT22;50653;47.810;13.022;2023-02-04T13:34:18;4.20;99.90
14397;DHT22;50653;47.810;13.022;2023-02-04T13:36:49;4.20;99.90
14397;DHT22;50653;47.810;13.022;2023-02-04T13:39:15;4.30;99.90
14397;DHT22;50653;47.810;13.022;2023-02-04T13:41:41;4.30;99.90
14397;DHT22;50653;47.810;13.022;2023-02-04T13:44:07;4.30;99.90
14397;DHT22;50653;47.810;13.022;2023-02-04T13:46:33;4.30;99.90
14397;DHT22;50653;47.810;13.022;2023-02-04T13:48:59;4.20;99.90
14397;DHT22;50653;47.810;13.022;2023-02-04T13:51:24;4.30;99.90
14397;DHT22;50653;47.810;13.022;2023-02-04T13:53:50;4.20;99.90
14397;DHT22;50653;47.810;13.022;2023-02-04T13:56:16;4.30;99.90
14397;DHT22;50653;47.810;13.022;2023-02-04T13:58:43;4.30;99.90
14397;DHT22;50653;47.810;13.022;2023-02-04T14:01:12;4.30;99.90
14397;DHT22;50653;47.810;13.022;2023-02-04T14:03:38;4.30;99.90
14397;DHT22;50653;47.810;13.022;2023-02-04T14:06:07;4.20;99.90
14397;DHT22;50653;47.810;13.022;2023-02-04T14:08:32;4.20;99.90
14397;DHT22;50653;47.810;13.022;2023-02-04T14:10:59;4.30;99.90
14397;DHT22;50653;47.810;13.022;2023-02-04T14:13:24;4.20;99.90
14397;DHT22;50653;47.810;13.022;2023-02-04T14:15:51;4.20;99.90
14397;DHT22;50653;47.810;13.022;2023-02-04T14:18:16;4.10;99.90
14397;DHT22;50653;47.810;13.022;2023-02-04T14:20:42;4.10;99.90
14397;DHT22;50653;47.810;13.022;2023-02-04T14:23:08;4.10;99.90
14397;DHT22;50653;47.810;13.022;2023-02-04T14:25:36;4.20;99.90
14397;DHT22;50653;47.810;13.022;2023-02-04T14:28:02;4.20;99.90
14397;DHT22;50653;47.810;13.022;2023-02-04T14:30:28;4.20;99.90
14397;DHT22;50653;47.810;13.022;2023-02-04T14:32:55;4.20;99.90
14397;DHT22;50653;47.810;13.022;2023-02-04T14:35:22;4.20;99.90
14397;DHT22;50653;47.810;13.022;2023-02-04T14:37:47;4.30;99.90
14397;DHT22;50653;47.810;13.022;2023-02-04T14:40:14;4.20;99.90
14397;DHT22;50653;47.810;13.022;2023-02-04T14:42:40;4.20;99.90
14397;DHT22;50653;47.810;13.022;2023-02-04T14:45:08;4.30;99.90
14397;DHT22;50653;47.810;13.022;2023-02-04T14:47:34;4.30;99.90
14397;DHT22;50653;47.810;13.022;2023-02-04T14:50:00;4.20;99.90
14397;DHT22;50653;47.810;13.022;2023-02-04T14:52:26;4.20;99.90
14397;DHT22;50653;47.810;13.022;2023-02-04T14:54:52;4.30;99.90
14397;DHT22;50653;47.810;13.022;2023-02-04T14:57:18;4.30;99.90
14397;DHT22;50653;47.810;13.022;2023-02-04T14:59:43;4.20;99.90
14397;DHT22;50653;47.810;13.022;2023-02-04T15:02:10;4.20;99.90
14397;DHT22;50653;47.810;13.022;2023-02-04T15:04:36;4.30;99.90
14397;DHT22;50653;47.810;13.022;2023-02-04T15:07:02;4.20;99.90
14397;DHT22;50653;47.810;13.022;2023-02-04T15:09:28;4.30;99.90
14397;DHT22;50653;47.810;13.022;2023-02-04T15:11:55;4.30;99.90
14397;DHT22;50653;47.810;13.022;2023-02-04T15:14:21;4.20;99.90
14397;DHT22;50653;47.810;13.022;2023-02-04T15:16:46;4.20;99.90
14397;DHT22;50653;47.810;13.022;2023-02-04T15:19:14;4.20;99.90
14397;DHT22;50653;47.810;13.022;2023-02-04T15:21:40;4.20;99.90
14397;DHT22;50653;47.810;13.022;2023-02-04T15:24:05;4.20;99.90
14397;DHT22;50653;47.810;13.022;2023-02-04T15:26:31;4.20;99.90
14397;DHT22;50653;47.810;13.022;2023-02-04T15:28:57;4.20;99.90
14397;DHT22;50653;47.810;13.022;2023-02-04T15:31:26;4.20;99.90
14397;DHT22;50653;47.810;13.022;2023-02-04T15:33:52;4.30;99.90
14397;DHT22;50653;47.810;13.022;2023-02-04T15:36:17;4.30;99.90
14397;DHT22;50653;47.810;13.022;2023-02-04T15:38:43;4.30;99.90
14397;DHT22;50653;47.810;13.022;2023-02-04T15:41:09;4.40;99.90
14397;DHT22;50653;47.810;13.022;2023-02-04T15:43:34;4.20;99.90
14397;DHT22;50653;47.810;13.022;2023-02-04T15:46:00;4.10;99.90
14397;DHT22;50653;47.810;13.022;2023-02-04T15:48:26;4.20;99.90
14397;DHT22;50653;47.810;13.022;2023-02-04T15:50:53;4.20;99.90
14397;DHT22;50653;47.810;13.022;2023-02-04T15:53:19;4.10;99.90
14397;DHT22;50653;47.810;13.022;2023-02-04T15:55:44;4.00;99.90
14397;DHT22;50653;47.810;13.022;2023-02-04T15:58:10;4.10;99.90